»·PEaware :: N1939W M94-S36

N1939W :: M94-S36

FLIGHT INFORMATION

Flight Status: Arrived
Operator: Privately registered:
United States
More flights under this callsign
Pilot: Ralph F. (3863)
Aircraft: Unknown
(LGEZ)
More flights by this aircraft type
Origin: M94 Desert Aire
United States
Destination: S36 Norman Grier Field
United States
More flights between these airports :: More routes between these airports
Route: FEBUS ELN V2 BANDR
File this flight plan on PilotEdge
Remarks: WASHINGTON ALPHABET CHALLENGE 13
Altitude:
(Current/Filed)
8,500ft
Speed:
(Current/Filed)
140kts
Departed: 22-Sep-20 11:07 AM
Arrived: 22-Sep-20 11:58 AM
Distance/Time
Traveled:
97nm/0:50
Distance/Time
To Go:
Arrived

Flight Plot

Page will automatically refresh every two minutes.

Flight plan parsing failed; only flown route is shown


Map Options




Map Legend


Flown Route
Filed Route
Departure Airport
Arrival Airport
Navaid (VOR, NDB)
Fix

Horizontal Profiles

Position Reports

Time Latitude Longitude Heading Altitude Ground
Speed
22-Sep-20 11:03 46.684506 -119.913876 119 588ft 0kts
22-Sep-20 11:04 46.684705 -119.913485 22 588ft 0kts
22-Sep-20 11:05 46.685102 -119.913471 301 588ft 1kts
22-Sep-20 11:06 46.692350 -119.936388 292 836ft 99kts
22-Sep-20 11:07 46.711973 -119.945240 8 2107ft 76kts
22-Sep-20 11:08 46.736956 -119.937180 10 2975ft 112kts
22-Sep-20 11:09 46.769534 -119.924950 13 3781ft 126kts
22-Sep-20 11:10 46.802990 -119.909580 13 4583ft 125kts
22-Sep-20 11:11 46.835815 -119.894024 13 5383ft 122kts
22-Sep-20 11:12 46.868030 -119.881200 8 6167ft 119kts
22-Sep-20 11:13 46.898912 -119.879245 303 6881ft 109kts
22-Sep-20 11:14 46.909677 -119.920224 287 7585ft 107kts
22-Sep-20 11:15 46.918950 -119.960999 286 8285ft 104kts
22-Sep-20 11:16 46.928603 -120.005416 285 8501ft 129kts
22-Sep-20 11:17 46.939789 -120.057558 285 8501ft 137kts
22-Sep-20 11:18 46.951286 -120.111470 285 8502ft 139kts
22-Sep-20 11:19 46.962813 -120.165726 285 8504ft 139kts
22-Sep-20 11:20 46.974297 -120.219936 284 8507ft 139kts
22-Sep-20 11:21 46.985742 -120.274146 284 8509ft 139kts
22-Sep-20 11:22 46.997164 -120.328388 284 8508ft 139kts
22-Sep-20 11:23 47.008623 -120.382938 284 8508ft 140kts
22-Sep-20 11:24 47.020069 -120.437568 284 8508ft 140kts
22-Sep-20 11:25 47.046890 -120.474436 285 8510ft 140kts
22-Sep-20 11:26 47.057690 -120.529210 276 8508ft 139kts
22-Sep-20 11:27 47.061029 -120.586008 273 8508ft 139kts
22-Sep-20 11:28 47.068287 -120.641903 284 8508ft 140kts
22-Sep-20 11:29 47.079492 -120.697068 283 8510ft 141kts
22-Sep-20 11:30 47.091540 -120.752013 285 8510ft 141kts
22-Sep-20 11:31 47.104055 -120.806730 285 8509ft 141kts
22-Sep-20 11:32 47.116535 -120.861348 285 8509ft 141kts
22-Sep-20 11:33 47.128992 -120.915998 285 8508ft 141kts
22-Sep-20 11:34 47.141444 -120.970765 285 8508ft 141kts
22-Sep-20 11:35 47.153823 -121.025326 285 8508ft 141kts
22-Sep-20 11:36 47.166209 -121.080070 285 8508ft 141kts
22-Sep-20 11:38 47.178569 -121.134847 285 8508ft 141kts
22-Sep-20 11:39 47.190923 -121.189743 284 8508ft 141kts
22-Sep-20 11:40 47.203245 -121.244620 284 8515ft 142kts
22-Sep-20 11:41 47.215668 -121.300131 284 8525ft 144kts
22-Sep-20 11:42 47.228316 -121.356808 284 8509ft 147kts
22-Sep-20 11:43 47.241126 -121.414383 284 8520ft 149kts
22-Sep-20 11:44 47.254523 -121.472419 283 8526ft 150kts
22-Sep-20 11:45 47.261725 -121.533063 274 8418ft 156kts
22-Sep-20 11:46 47.267831 -121.599660 274 7845ft 170kts
22-Sep-20 11:47 47.275015 -121.669348 279 7239ft 173kts
22-Sep-20 11:48 47.287527 -121.738299 282 6636ft 175kts
22-Sep-20 11:49 47.300259 -121.808330 282 5976ft 180kts
22-Sep-20 11:50 47.313128 -121.881955 282 4874ft 183kts
22-Sep-20 11:51 47.325434 -121.953955 282 3769ft 180kts
22-Sep-20 11:52 47.341282 -122.015727 292 2662ft 151kts
22-Sep-20 11:52 47.361985 -122.051886 354 1788ft 146kts
22-Sep-20 11:53 47.395795 -122.061249 345 1720ft 118kts
22-Sep-20 11:55 47.391384 -122.105204 206 1474ft 110kts
22-Sep-20 11:56 47.362869 -122.108950 178 869ft 108kts
22-Sep-20 11:56 47.341068 -122.104450 169 483ft 84kts
22-Sep-20 11:57 47.338360 -122.103564 355 475ft 3kts
22-Sep-20 11:59 47.338863 -122.103477 1 475ft 0kts
22-Sep-20 11:59 47.338906 -122.103481 354 475ft 0kts
22-Sep-20 12:00 47.338906 -122.103481 354 475ft 0kts
22-Sep-20 12:01 47.338906 -122.103481 354 475ft 0kts
22-Sep-20 12:02 47.338906 -122.103481 354 475ft 0kts

Navigation Log

Ident Type
Flight plan parsing failed, navigation log unavailable